Time;durP1;ratioP1;P1;durP2;ratioP2;P2;SDS_P1;SDS_P2;PMS_P1;PMS_P2;Temp;Humidity;BMP_temperature;BMP_pressure;BME280_temperature;BME280_humidity;BME280_pressure;Samples;Min_cycle;Max_cycle;Signal;HPM_P1;HPM_P2
2021/03/01 00:00:32;;;;;;;28.60;13.63;;;;;;;-2.39;80.55;98109.66;5061359;28;20044;-67
2021/03/01 00:02:58;;;;;;;23.67;14.35;;;;;;;-2.80;81.91;98114.47;5061683;28;20110;-67
2021/03/01 00:05:25;;;;;;;25.75;14.05;;;;;;;-2.64;80.84;98118.16;5061785;28;20051;-67
2021/03/01 00:07:51;;;;;;;24.10;12.32;;;;;;;-2.57;80.25;98119.63;5058834;28;20048;-67
2021/03/01 00:10:18;;;;;;;20.48;11.55;;;;;;;-2.54;80.95;98105.94;5058348;28;20053;-67
2021/03/01 00:12:44;;;;;;;21.30;12.50;;;;;;;-2.55;79.91;98094.09;5064332;28;20078;-68
2021/03/01 00:15:14;;;;;;;20.92;11.85;;;;;;;-2.41;80.08;98117.41;5063546;28;20044;-67
2021/03/01 00:17:40;;;;;;;20.95;12.07;;;;;;;-2.68;80.81;98116.59;5053806;28;20523;-67
2021/03/01 00:20:09;;;;;;;21.35;11.25;;;;;;;-2.59;79.63;98125.66;5061463;28;20094;-67
2021/03/01 00:22:35;;;;;;;24.30;11.90;;;;;;;-2.44;79.71;98106.47;5060518;28;20039;-67
2021/03/01 00:25:03;;;;;;;25.02;13.55;;;;;;;-2.81;81.29;98108.53;5057285;28;20048;-67
2021/03/01 00:27:29;;;;;;;30.13;13.88;;;;;;;-2.81;82.63;98117.91;5061332;28;20051;-67
2021/03/01 00:29:55;;;;;;;28.63;14.00;;;;;;;-2.80;81.75;98114.47;5057460;28;20045;-67
2021/03/01 00:32:21;;;;;;;30.02;14.13;;;;;;;-3.00;83.01;98125.31;5059723;28;20047;-67
2021/03/01 00:34:47;;;;;;;29.35;14.27;;;;;;;-2.62;81.30;98128.31;5062015;28;20040;-68
2021/03/01 00:37:14;;;;;;;28.27;13.00;;;;;;;-2.86;82.05;98128.22;5060323;28;20048;-67
2021/03/01 00:39:40;;;;;;;23.77;12.18;;;;;;;-2.64;81.49;98130.09;5059703;28;20432;-67
2021/03/01 00:42:06;;;;;;;25.58;12.60;;;;;;;-2.52;81.33;98125.41;5056898;28;20045;-67
2021/03/01 00:44:32;;;;;;;21.95;11.95;;;;;;;-2.76;81.66;98129.59;5063216;28;20037;-67
2021/03/01 00:46:58;;;;;;;26.52;13.45;;;;;;;-2.87;81.45;98121.47;5059903;28;20050;-67
2021/03/01 00:49:25;;;;;;;20.67;10.98;;;;;;;-2.71;81.03;98125.19;5060585;28;20569;-67
2021/03/01 00:51:51;;;;;;;20.10;10.77;;;;;;;-2.64;79.95;98112.25;5059909;28;20048;-67
2021/03/01 00:54:19;;;;;;;18.35;10.48;;;;;;;-2.73;80.90;98116.75;5045043;28;20033;-67
2021/03/01 00:56:51;;;;;;;19.65;10.95;;;;;;;-2.85;79.95;98112.06;5059267;28;20143;-67
2021/03/01 00:59:18;;;;;;;20.47;11.90;;;;;;;-2.88;81.54;98109.59;5058681;28;20488;-68
2021/03/01 01:01:57;;;;;;;25.02;12.15;;;;;;;-3.09;82.43;98094.16;5064525;28;20055;-67
2021/03/01 01:04:24;;;;;;;19.70;12.20;;;;;;;-3.11;82.41;98107.78;5065338;28;20328;-67
2021/03/01 01:06:50;;;;;;;21.25;11.57;;;;;;;-3.24;82.34;98106.50;5059573;28;20428;-67
2021/03/01 01:09:17;;;;;;;20.75;11.57;;;;;;;-3.23;83.90;98093.75;5061789;28;20052;-69
2021/03/01 01:11:44;;;;;;;19.25;10.85;;;;;;;-3.02;83.63;98086.31;5059501;28;20119;-67
2021/03/01 01:14:10;;;;;;;23.40;11.40;;;;;;;-2.79;82.62;98100.84;5059596;28;20033;-67
2021/03/01 01:16:37;;;;;;;23.40;12.02;;;;;;;-2.89;81.90;98085.00;5056471;28;20036;-68
2021/03/01 01:19:06;;;;;;;19.90;11.52;;;;;;;-3.03;82.37;98099.91;5058614;28;20063;-67
2021/03/01 01:21:32;;;;;;;19.70;11.65;;;;;;;-3.08;82.29;98095.78;5051770;28;20064;-67
2021/03/01 01:23:58;;;;;;;20.42;10.88;;;;;;;-3.06;82.58;98090.66;5062786;28;20044;-67
2021/03/01 01:26:24;;;;;;;23.33;11.77;;;;;;;-2.82;81.43;98093.28;5060317;28;20056;-67
2021/03/01 01:28:50;;;;;;;18.40;9.77;;;;;;;-2.92;80.83;98095.28;5058904;28;20545;-67
2021/03/01 01:31:16;;;;;;;19.65;10.32;;;;;;;-3.01;80.56;98096.41;5062986;28;20258;-67
2021/03/01 01:33:42;;;;;;;19.10;10.60;;;;;;;-3.00;81.25;98087.09;5058082;28;20036;-67
2021/03/01 01:36:09;;;;;;;20.60;11.25;;;;;;;-3.20;82.64;98080.91;5060586;28;20445;-67
2021/03/01 01:38:48;;;;;;;19.80;11.45;;;;;;;-2.85;82.28;98081.47;5058246;28;20356;-67
2021/03/01 01:41:15;;;;;;;20.25;11.57;;;;;;;-2.68;82.58;98081.75;5061907;28;20490;-67
2021/03/01 01:43:41;;;;;;;18.13;9.77;;;;;;;-3.04;82.12;98073.59;5054177;28;20036;-67
2021/03/01 01:46:07;;;;;;;21.60;12.43;;;;;;;-2.69;83.06;98066.50;5056687;28;20419;-67
2021/03/01 01:48:33;;;;;;;22.10;11.77;;;;;;;-2.67;82.30;98064.72;5063487;28;20055;-67
2021/03/01 01:50:59;;;;;;;19.70;10.82;;;;;;;-2.61;81.62;98064.50;5060695;28;20048;-67
2021/03/01 01:53:25;;;;;;;18.45;11.18;;;;;;;-2.85;80.88;98076.38;5055282;28;20045;-67
2021/03/01 01:55:52;;;;;;;18.73;9.90;;;;;;;-3.04;82.51;98070.22;5060350;28;20508;-67
2021/03/01 01:58:18;;;;;;;16.92;10.15;;;;;;;-2.98;81.13;98077.69;5057917;28;20047;-67
2021/03/01 02:03:23;;;;;;;19.50;10.27;;;;;;;-2.78;81.47;98077.84;5057000;28;20032;-67
2021/03/01 02:05:51;;;;;;;25.77;12.23;;;;;;;-3.07;81.99;98082.19;5061013;28;20444;-67
2021/03/01 02:08:28;;;;;;;20.17;10.30;;;;;;;-3.00;82.32;98082.00;5057001;28;20943;-67
2021/03/01 02:11:07;;;;;;;21.63;10.85;;;;;;;-3.04;82.68;98071.06;5052584;28;20044;-67
2021/03/01 02:14:11;;;;;;;21.20;12.07;;;;;;;-2.91;81.48;98074.88;5060445;28;20177;-67
2021/03/01 02:16:37;;;;;;;20.30;11.00;;;;;;;-2.72;82.37;98079.34;5016755;28;20055;-67
2021/03/01 02:19:04;;;;;;;25.35;11.35;;;;;;;-2.85;82.63;98084.03;5058660;28;20040;-67
2021/03/01 02:21:31;;;;;;;25.17;12.60;;;;;;;-2.95;82.68;98077.56;5056649;28;20040;-67
2021/03/01 02:23:57;;;;;;;20.05;10.05;;;;;;;-2.62;80.66;98082.44;5060794;28;20051;-68
2021/03/01 02:26:32;;;;;;;19.38;11.07;;;;;;;-3.03;81.98;98084.63;5058908;28;20052;-67
2021/03/01 02:29:04;;;;;;;20.95;10.98;;;;;;;-2.75;80.48;98085.41;5062233;28;20063;-67
2021/03/01 02:31:36;;;;;;;23.92;11.35;;;;;;;-2.93;81.36;98084.28;5055857;28;20053;-68
2021/03/01 02:34:05;;;;;;;18.95;10.90;;;;;;;-2.91;81.10;98076.59;5077716;28;20040;-67
2021/03/01 02:36:42;;;;;;;25.83;13.25;;;;;;;-3.15;82.26;98071.41;5062769;28;20408;-67
2021/03/01 02:39:09;;;;;;;23.98;11.20;;;;;;;-2.83;81.54;98074.63;5057343;28;20051;-67
2021/03/01 02:41:38;;;;;;;24.67;12.77;;;;;;;-2.97;80.89;98067.41;5059325;28;20126;-68
2021/03/01 02:44:05;;;;;;;19.58;10.73;;;;;;;-3.30;82.04;98071.91;5063364;28;20037;-67
2021/03/01 02:46:33;;;;;;;23.38;11.95;;;;;;;-3.27;83.19;98066.69;5064477;28;20515;-68
2021/03/01 02:49:00;;;;;;;23.80;12.20;;;;;;;-3.35;83.29;98061.00;5062392;28;20053;-67
2021/03/01 02:51:27;;;;;;;26.80;14.57;;;;;;;-3.23;81.91;98070.81;5059165;28;20067;-67
2021/03/01 02:53:54;;;;;;;22.60;13.07;;;;;;;-3.14;82.21;98067.97;5065662;28;20037;-67
2021/03/01 02:56:21;;;;;;;24.15;14.02;;;;;;;-3.30;83.19;98064.25;5066189;28;20081;-67
2021/03/01 02:58:49;;;;;;;25.97;14.50;;;;;;;-3.23;82.72;98070.81;5059199;28;20041;-67
2021/03/01 03:01:17;;;;;;;24.98;13.52;;;;;;;-3.14;81.99;98062.03;5061190;28;20780;-67
2021/03/01 03:03:46;;;;;;;23.60;13.18;;;;;;;-3.19;83.43;98076.66;5063147;28;20443;-67
2021/03/01 03:06:15;;;;;;;28.85;15.63;;;;;;;-3.24;82.62;98074.22;5062899;28;20063;-68
2021/03/01 03:08:44;;;;;;;29.85;15.55;;;;;;;-3.33;83.10;98071.97;5067828;28;20119;-68
2021/03/01 03:11:11;;;;;;;24.90;13.88;;;;;;;-3.41;83.50;98072.22;5064854;28;20036;-67
2021/03/01 03:13:38;;;;;;;25.95;13.77;;;;;;;-3.04;81.86;98088.06;5065221;28;20331;-67
2021/03/01 03:16:06;;;;;;;22.27;13.90;;;;;;;-3.19;80.83;98081.75;5062442;28;20040;-67
2021/03/01 03:18:33;;;;;;;22.98;13.32;;;;;;;-3.11;81.08;98079.75;5063798;28;20051;-67
2021/03/01 03:20:59;;;;;;;29.03;14.50;;;;;;;-3.52;82.74;98094.63;5064808;28;20041;-67
2021/03/01 03:23:26;;;;;;;25.27;12.85;;;;;;;-3.28;82.24;98093.06;5056432;28;20047;-67
2021/03/01 03:25:53;;;;;;;26.83;14.20;;;;;;;-3.38;83.43;98097.59;5063855;28;20131;-68
2021/03/01 03:28:19;;;;;;;21.27;12.93;;;;;;;-3.13;81.86;98101.94;5060424;28;20191;-67
2021/03/01 03:30:45;;;;;;;22.85;12.30;;;;;;;-3.24;81.71;98097.16;5059439;28;20052;-67
2021/03/01 03:33:11;;;;;;;24.67;13.82;;;;;;;-3.45;81.57;98105.47;5065130;28;20046;-67
2021/03/01 03:35:38;;;;;;;21.75;11.77;;;;;;;-3.53;82.17;98101.44;5057735;28;20040;-67
2021/03/01 03:38:10;;;;;;;24.17;13.85;;;;;;;-3.39;83.54;98101.00;5067036;28;20086;-67
2021/03/01 03:40:37;;;;;;;17.20;10.90;;;;;;;-3.28;82.21;98098.97;5063833;28;20052;-68
2021/03/01 03:43:06;;;;;;;24.08;12.50;;;;;;;-3.37;82.58;98095.88;5060202;28;20153;-67
2021/03/01 03:45:33;;;;;;;22.52;12.00;;;;;;;-3.27;83.18;98093.00;5060815;28;20048;-68
2021/03/01 03:48:03;;;;;;;25.13;12.98;;;;;;;-3.32;83.57;98091.50;5057928;28;20054;-67
2021/03/01 03:50:34;;;;;;;24.10;12.75;;;;;;;-3.32;83.55;98091.50;5056948;28;20032;-69
2021/03/01 03:53:23;;;;;;;25.58;13.90;;;;;;;-3.38;83.27;98095.06;5061589;28;20094;-68
2021/03/01 03:55:50;;;;;;;;;;;;;;;-3.31;83.17;98090.59;5063937;28;20052;-69
2021/03/01 03:58:21;;;;;;;28.30;15.77;;;;;;;-3.16;82.47;98081.63;5060645;28;19920;-68
2021/03/01 04:00:52;;;;;;;27.65;12.52;;;;;;;-3.40;82.60;98073.06;5069528;28;20044;-67
2021/03/01 04:03:22;;;;;;;27.45;12.52;;;;;;;-3.46;82.23;98086.00;5062282;28;20066;-67
2021/03/01 04:05:52;;;;;;;23.90;12.55;;;;;;;-3.66;82.07;98087.44;5066145;28;20075;-68
2021/03/01 04:08:19;;;;;;;27.13;13.73;;;;;;;-3.74;83.69;98082.56;5062454;28;20488;-68
2021/03/01 04:10:48;;;;;;;27.95;14.50;;;;;;;-3.67;83.99;98079.84;5064379;28;20562;-67
2021/03/01 04:13:16;;;;;;;28.23;13.95;;;;;;;-3.64;83.90;98084.81;5068718;28;20085;-67
2021/03/01 04:15:46;;;;;;;25.30;12.85;;;;;;;-3.57;83.33;98083.78;5055227;28;20032;-68
2021/03/01 04:18:17;;;;;;;29.27;12.93;;;;;;;-3.60;82.93;98083.84;5065916;28;20055;-68
2021/03/01 04:20:45;;;;;;;27.83;13.52;;;;;;;-3.50;83.49;98092.88;5061068;28;20384;-67
2021/03/01 04:23:13;;;;;;;28.70;14.23;;;;;;;-3.42;82.52;98092.66;5065057;28;20044;-68
2021/03/01 04:25:41;;;;;;;28.02;13.55;;;;;;;-3.46;83.63;98094.44;5063237;28;20040;-68
2021/03/01 04:28:09;;;;;;;30.15;15.52;;;;;;;-3.53;83.33;98091.25;5057599;28;20045;-67
2021/03/01 04:30:36;;;;;;;30.73;13.70;;;;;;;-3.53;83.26;98093.81;5067131;28;20059;-67
2021/03/01 04:33:03;;;;;;;29.25;12.75;;;;;;;-3.51;82.09;98092.06;5060381;28;20037;-68
2021/03/01 04:35:30;;;;;;;31.08;14.50;;;;;;;-3.54;83.01;98081.94;5061685;28;20066;-68
2021/03/01 04:37:56;;;;;;;30.50;14.73;;;;;;;-3.61;82.41;98080.47;5063826;28;20137;-67
2021/03/01 04:40:23;;;;;;;32.13;13.52;;;;;;;-3.72;83.37;98087.59;5060369;28;20297;-67
2021/03/01 04:42:49;;;;;;;31.67;13.82;;;;;;;-3.48;83.39;98089.41;5061703;28;20040;-68
2021/03/01 04:45:18;;;;;;;27.00;12.95;;;;;;;-3.23;81.57;98090.38;5057873;28;20091;-67
2021/03/01 04:47:48;;;;;;;32.92;14.93;;;;;;;-3.50;82.40;98091.16;5059634;28;21290;-67
2021/03/01 04:50:15;;;;;;;28.20;12.52;;;;;;;-3.41;81.08;98087.50;5064871;28;20045;-68
2021/03/01 04:52:43;;;;;;;24.17;13.00;;;;;;;-3.53;82.99;98087.88;5058522;28;20045;-67
2021/03/01 04:55:11;;;;;;;27.70;13.40;;;;;;;-3.43;82.89;98090.97;5061154;28;20101;-67
2021/03/01 04:57:39;;;;;;;32.88;14.57;;;;;;;-3.62;81.81;98083.91;5060700;28;20040;-68
2021/03/01 05:00:07;;;;;;;28.55;13.85;;;;;;;-3.63;83.10;98092.41;5054519;28;20044;-68
2021/03/01 05:02:35;;;;;;;25.65;13.50;;;;;;;-3.64;81.98;98093.31;5059004;28;20051;-67
2021/03/01 05:05:04;;;;;;;28.90;13.57;;;;;;;-3.73;82.72;98084.22;5064447;28;20046;-67
2021/03/01 05:07:31;;;;;;;30.60;15.30;;;;;;;-3.65;82.38;98089.09;5059897;28;20036;-68
2021/03/01 05:09:58;;;;;;;25.13;14.55;;;;;;;-3.73;83.28;98096.09;5059918;28;20131;-67
2021/03/01 05:12:24;;;;;;;28.02;14.60;;;;;;;-3.71;82.58;98090.09;5063230;28;20041;-67
2021/03/01 05:14:51;;;;;;;25.02;13.32;;;;;;;-3.72;81.92;98085.88;5065092;28;20420;-67
2021/03/01 05:17:17;;;;;;;32.13;15.93;;;;;;;-3.73;82.38;98081.66;5059186;28;20114;-68
2021/03/01 05:19:43;;;;;;;28.20;13.48;;;;;;;-3.83;82.34;98087.06;5062426;28;20291;-67
2021/03/01 05:22:12;;;;;;;31.55;15.70;;;;;;;-3.79;82.12;98086.97;5063834;28;20480;-67
2021/03/01 05:24:38;;;;;;;30.58;16.15;;;;;;;-3.84;82.25;98077.78;5060856;28;20051;-68
2021/03/01 05:27:04;;;;;;;26.80;14.63;;;;;;;-3.78;82.03;98093.69;5059875;28;20411;-69
2021/03/01 05:29:30;;;;;;;28.80;14.07;;;;;;;-3.94;82.17;98079.75;5063785;28;20040;-68
2021/03/01 05:31:56;;;;;;;38.45;17.52;;;;;;;-3.94;82.98;98083.16;5058188;28;20068;-68
2021/03/01 05:34:23;;;;;;;33.78;15.18;;;;;;;-3.82;83.25;98092.13;5053921;28;21021;-69
2021/03/01 05:36:49;;;;;;;49.08;27.00;;;;;;;-3.77;83.97;98091.97;5059001;28;20052;-70
2021/03/01 05:39:15;;;;;;;36.97;20.27;;;;;;;-3.53;82.84;98103.16;5042679;28;20140;-69
2021/03/01 05:41:45;;;;;;;34.58;18.70;;;;;;;-3.98;83.23;98099.38;5062464;28;20059;-68
2021/03/01 05:44:12;;;;;;;45.95;22.92;;;;;;;-3.93;83.55;98096.69;5061749;28;20075;-68
2021/03/01 05:46:41;;;;;;;37.83;19.38;;;;;;;-3.85;83.25;98089.69;5056239;28;20048;-67
2021/03/01 05:49:08;;;;;;;44.33;21.48;;;;;;;-3.86;83.47;98094.81;5061658;28;20529;-68
2021/03/01 05:51:39;;;;;;;37.50;19.00;;;;;;;-3.78;82.09;98087.78;5064334;28;20040;-68
2021/03/01 05:54:07;;;;;;;33.42;18.50;;;;;;;-3.75;82.68;98098.69;5070726;28;20040;-68
2021/03/01 05:56:33;;;;;;;30.00;16.58;;;;;;;-3.86;82.46;98099.91;5063230;28;20051;-69
2021/03/01 05:58:59;;;;;;;34.17;17.73;;;;;;;-3.74;83.86;98100.38;5063600;28;20054;-68
2021/03/01 06:01:26;;;;;;;31.58;16.88;;;;;;;-3.90;82.49;98099.13;5058676;28;20135;-68
2021/03/01 06:03:53;;;;;;;31.52;16.23;;;;;;;-3.81;83.27;98109.06;5054168;28;20041;-68
2021/03/01 06:06:19;;;;;;;25.63;15.10;;;;;;;-3.60;81.90;98114.38;5074850;28;20155;-68
2021/03/01 06:08:45;;;;;;;32.67;16.92;;;;;;;-3.76;82.10;98103.84;5060740;28;20052;-69
2021/03/01 06:11:11;;;;;;;27.65;14.85;;;;;;;-3.60;82.04;98112.66;5068381;28;20080;-67
2021/03/01 06:13:41;;;;;;;31.40;16.10;;;;;;;-3.71;82.32;98101.97;5069998;28;20530;-68
2021/03/01 06:16:09;;;;;;;32.05;17.42;;;;;;;-3.37;80.73;98103.53;5010246;28;20064;-77
2021/03/01 06:18:45;;;;;;;26.13;14.32;;;;;;;-3.54;80.54;98098.94;5028650;28;20059;-78
2021/03/01 06:21:16;;;;;;;27.48;15.85;;;;;;;-3.43;81.27;98121.53;5032237;28;20053;-78
2021/03/01 06:23:44;;;;;;;30.02;16.35;;;;;;;-3.38;82.15;98117.97;5013731;28;20049;-79
2021/03/01 06:26:33;;;;;;;32.13;16.90;;;;;;;-3.27;82.95;98122.72;5033145;28;20464;-79
2021/03/01 06:29:02;;;;;;;31.27;16.15;;;;;;;-3.17;83.32;98120.75;5043645;28;20063;-79
2021/03/01 06:31:43;;;;;;;28.58;15.10;;;;;;;-3.16;81.11;98102.03;5050286;28;20491;-79
2021/03/01 06:34:25;;;;;;;30.95;15.38;;;;;;;-3.09;80.98;98106.88;5031467;28;20090;-79
2021/03/01 06:37:08;;;;;;;38.58;17.95;;;;;;;-2.98;81.11;98116.72;5028235;28;20065;-79
2021/03/01 06:39:45;;;;;;;29.42;15.35;;;;;;;-2.75;81.64;98132.97;5047898;28;20052;-78
2021/03/01 06:42:23;;;;;;;27.05;14.40;;;;;;;-2.90;81.05;98124.09;5045660;28;20049;-78
2021/03/01 06:44:59;;;;;;;33.22;17.23;;;;;;;-2.51;80.74;98136.44;5033701;28;20465;-78
2021/03/01 06:47:48;;;;;;;44.75;19.67;;;;;;;-2.43;80.39;98129.38;5045561;28;20116;-79
2021/03/01 06:50:30;;;;;;;30.85;16.48;;;;;;;-1.98;81.02;98132.91;5028874;28;20528;-79
2021/03/01 06:52:59;;;;;;;33.20;17.83;;;;;;;-2.05;81.03;98130.59;5046627;28;20094;-79
2021/03/01 06:55:26;;;;;;;33.33;19.73;;;;;;;-1.86;80.99;98128.19;5037164;28;20049;-79
2021/03/01 06:57:52;;;;;;;28.73;15.60;;;;;;;-1.63;79.89;98134.16;5017651;28;20083;-78
2021/03/01 07:00:27;;;;;;;28.63;16.08;;;;;;;-1.33;79.19;98139.03;5029021;28;20109;-78
2021/03/01 07:02:54;;;;;;;34.50;17.08;;;;;;;-1.34;79.36;98133.06;5013076;28;20570;-79
2021/03/01 07:05:24;;;;;;;23.65;14.75;;;;;;;-0.93;78.31;98142.56;5027005;28;20129;-79
2021/03/01 07:07:50;;;;;;;32.75;16.17;;;;;;;-0.76;78.62;98129.97;5029138;28;20045;-79
2021/03/01 07:10:17;;;;;;;30.60;17.05;;;;;;;-0.60;77.82;98139.56;5016285;28;20039;-79
2021/03/01 07:12:46;;;;;;;24.20;14.25;;;;;;;-0.30;77.19;98147.66;5012985;28;20044;-79
2021/03/01 07:15:13;;;;;;;24.55;16.73;;;;;;;-0.40;77.08;98147.25;5016660;28;20045;-79
2021/03/01 07:17:42;;;;;;;25.58;15.63;;;;;;;-0.10;77.23;98149.41;5012732;28;20061;-79
2021/03/01 07:20:11;;;;;;;25.17;15.02;;;;;;;0.20;75.44;98150.63;5028412;28;20033;-80
2021/03/01 07:22:42;;;;;;;29.38;15.48;;;;;;;0.08;77.12;98156.25;5012335;28;20132;-79
2021/03/01 07:25:12;;;;;;;24.25;14.85;;;;;;;0.38;75.52;98145.56;5032203;28;20160;-79
2021/03/01 07:27:40;;;;;;;21.35;14.13;;;;;;;0.65;76.19;98152.91;4996781;28;20050;-79
2021/03/01 07:30:10;;;;;;;24.83;13.77;;;;;;;0.77;74.32;98157.47;5025741;28;20076;-79
2021/03/01 07:32:38;;;;;;;20.45;13.25;;;;;;;1.12;72.98;98163.53;5030805;28;20102;-79
2021/03/01 07:35:07;;;;;;;20.45;12.73;;;;;;;1.17;73.32;98160.72;5026752;28;20524;-79
2021/03/01 07:37:35;;;;;;;20.85;12.45;;;;;;;1.24;72.70;98169.78;5012330;28;20402;-78
2021/03/01 07:40:07;;;;;;;19.42;11.82;;;;;;;1.63;71.12;98169.59;5013352;28;20148;-79
2021/03/01 07:42:38;;;;;;;21.38;13.30;;;;;;;1.45;72.57;98173.03;5012063;28;20052;-79
2021/03/01 07:45:06;;;;;;;25.10;13.07;;;;;;;2.18;71.41;98175.38;5031556;28;20049;-79
2021/03/01 07:47:32;;;;;;;23.42;12.45;;;;;;;2.33;69.16;98184.88;5007442;28;20154;-79
2021/03/01 07:49:59;;;;;;;18.73;11.70;;;;;;;2.35;68.26;98179.66;5029326;28;20053;-78
2021/03/01 07:52:28;;;;;;;19.83;11.18;;;;;;;2.83;68.47;98188.25;5027822;28;20037;-79
2021/03/01 07:55:00;;;;;;;18.65;11.75;;;;;;;3.26;67.14;98185.91;4999499;28;20505;-78
2021/03/01 07:57:27;;;;;;;19.85;11.90;;;;;;;3.13;64.74;98174.63;5016690;28;20047;-78
2021/03/01 07:59:54;;;;;;;21.23;10.77;;;;;;;3.63;66.35;98183.81;5009041;28;20045;-78
2021/03/01 08:02:25;;;;;;;20.08;12.48;;;;;;;3.58;66.10;98190.97;5010192;28;20060;-78
2021/03/01 08:04:54;;;;;;;16.73;11.35;;;;;;;4.03;64.36;98190.06;5022606;28;20049;-78
2021/03/01 08:07:56;;;;;;;18.92;10.32;;;;;;;4.75;62.90;98194.38;5029262;28;20049;-78
2021/03/01 08:10:28;;;;;;;15.75;11.15;;;;;;;4.87;61.50;98188.47;4975315;28;20042;-78
2021/03/01 08:13:05;;;;;;;17.75;10.98;;;;;;;4.54;62.66;98187.00;5002704;28;20053;-78
2021/03/01 08:15:39;;;;;;;15.10;9.98;;;;;;;5.48;62.50;98194.88;5029557;28;20521;-78
2021/03/01 08:18:06;;;;;;;14.88;10.18;;;;;;;5.04;58.94;98183.06;5026535;28;20061;-78
2021/03/01 08:20:35;;;;;;;15.63;10.45;;;;;;;5.45;58.02;98174.41;5030302;28;20384;-78
2021/03/01 08:23:05;;;;;;;15.65;9.85;;;;;;;6.11;57.12;98166.66;5008406;28;20474;-78
2021/03/01 08:25:51;;;;;;;12.35;9.27;;;;;;;6.16;57.23;98163.75;5003490;28;20454;-77
2021/03/01 08:28:37;;;;;;;15.00;9.85;;;;;;;6.55;56.43;98165.38;5005767;28;20076;-77
2021/03/01 08:31:09;;;;;;;12.15;8.63;;;;;;;6.58;54.17;98165.16;5033264;28;20149;-78
2021/03/01 08:33:37;;;;;;;15.07;9.57;;;;;;;7.06;54.08;98170.41;5003880;28;20060;-77
2021/03/01 08:36:25;;;;;;;11.52;9.23;;;;;;;7.49;54.01;98156.94;5023512;28;20076;-77
2021/03/01 08:38:56;;;;;;;13.00;8.77;;;;;;;7.70;51.58;98151.94;5009361;28;20072;-78
2021/03/01 08:41:32;;;;;;;11.45;9.32;;;;;;;7.85;50.90;98162.94;5004217;28;20051;-78
2021/03/01 08:43:59;;;;;;;12.32;9.50;;;;;;;8.13;50.05;98146.13;5005150;28;20056;-78
2021/03/01 08:46:25;;;;;;;12.70;10.27;;;;;;;8.30;49.96;98157.78;5023587;28;20058;-78
2021/03/01 08:48:55;;;;;;;11.20;8.98;;;;;;;9.07;49.04;98157.00;5020549;28;20069;-78
2021/03/01 08:51:21;;;;;;;13.32;9.32;;;;;;;8.89;49.01;98161.06;5014792;28;20041;-78
2021/03/01 08:53:51;;;;;;;13.18;9.10;;;;;;;8.87;48.51;98155.16;5021045;28;20417;-78
2021/03/01 08:56:23;;;;;;;13.25;9.35;;;;;;;9.55;46.43;98153.19;5024690;28;20053;-78
2021/03/01 08:58:49;;;;;;;14.50;10.32;;;;;;;9.15;46.57;98148.59;5023717;28;20045;-78
2021/03/01 09:01:16;;;;;;;12.45;9.63;;;;;;;9.46;46.31;98151.31;5009255;28;20045;-78
2021/03/01 09:03:43;;;;;;;14.73;9.52;;;;;;;10.12;46.71;98149.28;5006018;28;20555;-78
2021/03/01 09:06:20;;;;;;;11.35;10.15;;;;;;;9.45;47.99;98144.47;5023609;28;20088;-78
2021/03/01 09:08:54;;;;;;;12.38;9.60;;;;;;;9.79;47.74;98148.53;5008749;28;20572;-78
2021/03/01 09:11:29;;;;;;;11.13;9.45;;;;;;;11.13;42.72;98129.31;5027224;28;20053;-78
2021/03/01 09:14:06;;;;;;;11.02;9.65;;;;;;;13.94;38.62;98135.97;5002972;28;20041;-78
2021/03/01 09:16:36;;;;;;;12.82;9.98;;;;;;;16.98;32.11;98138.81;5026038;28;20148;-78
2021/03/01 09:19:11;;;;;;;13.10;9.32;;;;;;;18.07;30.23;98128.91;5024596;28;20052;-78
2021/03/01 09:21:40;;;;;;;14.98;10.48;;;;;;;19.21;30.77;98125.88;4996613;28;20064;-78
2021/03/01 09:24:11;;;;;;;10.70;9.60;;;;;;;20.11;27.59;98122.56;5005469;28;20121;-78
2021/03/01 09:26:39;;;;;;;12.63;9.82;;;;;;;18.44;28.50;98114.81;5032070;28;20718;-78
2021/03/01 09:29:13;;;;;;;11.40;9.88;;;;;;;19.63;28.06;98119.75;5023813;28;20406;-78
2021/03/01 09:31:44;;;;;;;11.70;9.80;;;;;;;19.26;28.41;98124.31;5024343;28;20042;-78
2021/03/01 09:34:13;;;;;;;10.50;9.38;;;;;;;21.62;26.26;98124.31;5011014;28;20060;-78
2021/03/01 09:36:41;;;;;;;10.30;8.73;;;;;;;21.42;25.33;98104.94;5008801;28;20045;-78
2021/03/01 09:39:08;;;;;;;9.82;8.57;;;;;;;21.87;25.63;98110.44;5008498;28;20033;-78
2021/03/01 09:41:48;;;;;;;11.38;9.82;;;;;;;22.75;24.65;98123.28;5012246;28;20053;-78
2021/03/01 09:44:32;;;;;;;9.70;8.70;;;;;;;23.55;23.21;98115.66;5034537;28;20041;-78
2021/03/01 09:47:00;;;;;;;10.30;9.10;;;;;;;24.65;21.95;98110.75;5030337;28;20053;-78
2021/03/01 09:49:29;;;;;;;9.82;8.82;;;;;;;22.86;24.73;98108.50;5029056;28;20049;-78
2021/03/01 09:51:56;;;;;;;12.88;9.73;;;;;;;23.96;23.06;98102.84;5009013;28;20068;-78
2021/03/01 09:54:23;;;;;;;11.05;9.02;;;;;;;24.77;21.83;98114.28;5033572;28;20045;-78
2021/03/01 09:56:54;;;;;;;11.40;9.70;;;;;;;23.10;22.90;98104.34;5030021;28;20061;-78
2021/03/01 09:59:32;;;;;;;10.82;9.07;;;;;;;25.97;20.22;98105.31;5034794;28;20038;-78
2021/03/01 10:02:24;;;;;;;9.68;8.68;;;;;;;23.21;22.07;98113.47;5030127;28;20077;-78
2021/03/01 10:04:52;;;;;;;11.30;9.35;;;;;;;26.27;19.81;98107.03;5029087;28;20057;-78
2021/03/01 10:07:36;;;;;;;14.25;9.02;;;;;;;24.64;21.22;98109.09;5016319;28;20049;-77
2021/03/01 10:10:14;;;;;;;9.70;8.65;;;;;;;26.03;19.74;98106.22;5012783;28;20083;-78
2021/03/01 10:12:44;;;;;;;;;;;;;;;24.64;21.34;98104.59;5029645;28;20128;-78
2021/03/01 10:15:17;;;;;;;10.90;9.60;;;;;;;23.81;21.48;98103.19;5023800;28;19921;-78
2021/03/01 10:17:43;;;;;;;9.98;8.43;;;;;;;25.44;20.23;98084.03;5035452;28;20045;-78
2021/03/01 10:20:14;;;;;;;9.60;8.60;;;;;;;24.30;21.11;98098.84;5010971;28;20037;-78
2021/03/01 10:23:05;;;;;;;9.98;8.80;;;;;;;28.77;19.06;98101.50;5015854;28;20482;-78
2021/03/01 10:25:37;;;;;;;10.40;9.30;;;;;;;26.08;19.68;98093.00;5012731;28;20509;-78
2021/03/01 10:28:24;;;;;;;11.20;9.10;;;;;;;26.95;19.38;98102.78;5010768;28;20109;-78
2021/03/01 10:31:00;;;;;;;13.95;9.30;;;;;;;26.74;19.31;98106.91;5029550;28;20096;-79
2021/03/01 10:33:27;;;;;;;10.57;9.50;;;;;;;28.22;18.45;98097.84;5033885;28;20041;-78
2021/03/01 10:36:07;;;;;;;12.52;8.77;;;;;;;26.65;19.07;98100.34;5029782;28;20413;-78
2021/03/01 10:39:16;;;;;;;10.98;9.25;;;;;;;29.01;17.81;98088.59;4998702;28;20564;-78
2021/03/01 10:41:48;;;;;;;10.40;8.52;;;;;;;28.34;17.96;98094.25;4981504;28;20053;-78
2021/03/01 10:44:14;;;;;;;16.30;9.48;;;;;;;28.60;17.94;98090.84;5017937;28;20058;-77
2021/03/01 10:46:48;;;;;;;11.57;9.43;;;;;;;28.01;18.40;98094.09;5012443;28;20050;-78
2021/03/01 10:49:19;;;;;;;12.60;8.50;;;;;;;30.09;17.22;98084.09;5024078;28;20053;-78
2021/03/01 10:51:48;;;;;;;9.52;8.52;;;;;;;29.67;17.96;98070.66;5010014;28;20038;-77
2021/03/01 10:54:14;;;;;;;9.80;8.75;;;;;;;29.40;17.60;98077.72;5021647;28;20034;-78
2021/03/01 10:56:41;;;;;;;10.82;8.73;;;;;;;28.79;17.70;98082.50;5031194;28;20037;-78
2021/03/01 10:59:07;;;;;;;;;;;;;;;29.12;17.64;98078.00;5029907;28;20101;-78
2021/03/01 11:01:36;;;;;;;10.90;9.80;;;;;;;29.19;17.96;98070.56;5007865;28;19925;-77
2021/03/01 11:04:04;;;;;;;10.48;9.45;;;;;;;30.95;17.17;98064.00;5025455;28;20038;-78
2021/03/01 11:06:32;;;;;;;10.02;8.77;;;;;;;29.95;17.60;98053.41;4995639;28;20099;-77
2021/03/01 11:08:59;;;;;;;11.40;8.98;;;;;;;29.34;19.59;98051.91;5006160;28;20109;-78
2021/03/01 11:11:25;;;;;;;14.70;8.45;;;;;;;30.42;18.18;98050.69;5010025;28;20047;-78
2021/03/01 11:13:51;;;;;;;8.93;8.02;;;;;;;30.86;16.81;98041.38;5010618;28;20053;-78
2021/03/01 11:16:17;;;;;;;10.40;9.05;;;;;;;31.41;17.06;98026.38;5000877;28;20534;-77
2021/03/01 11:18:44;;;;;;;15.32;8.32;;;;;;;31.75;17.21;98035.75;5010317;28;20060;-77
2021/03/01 11:21:10;;;;;;;11.88;10.85;;;;;;;33.35;14.69;98014.97;5025310;28;20045;-78
2021/03/01 11:23:37;;;;;;;10.07;8.18;;;;;;;31.43;15.79;98018.03;5009432;28;20037;-78
2021/03/01 11:26:03;;;;;;;;;;;;;;;33.41;15.65;98035.41;5011389;28;20099;-77
2021/03/01 11:28:30;;;;;;;16.38;8.13;;;;;;;32.50;16.09;98027.66;5025668;28;19921;-78
2021/03/01 11:30:56;;;;;;;8.50;7.70;;;;;;;29.91;17.01;98025.47;5025474;28;20038;-78
2021/03/01 11:33:22;;;;;;;8.02;7.22;;;;;;;33.61;14.73;98023.63;5032928;28;20061;-77
2021/03/01 11:35:51;;;;;;;8.77;7.25;;;;;;;33.82;14.42;98019.63;5025925;28;20041;-78